Time;durP1;ratioP1;P1;durP2;ratioP2;P2;SDS_P1;SDS_P2;PMS_P1;PMS_P2;Temp;Humidity;BMP_temperature;BMP_pressure;BME280_temperature;BME280_humidity;BME280_pressure;Samples;Min_cycle;Max_cycle;Signal;HPM_P1;HPM_P2
2022/03/11 00:04:58;;;;;;;13.07;7.40;;;6.90;60.90;;;;;;10408294;28;20319;-73
2022/03/11 00:09:58;;;;;;;10.80;7.73;;;6.80;61.50;;;;;;10406180;28;20209;-74
2022/03/11 00:14:59;;;;;;;13.30;7.00;;;6.80;62.00;;;;;;10403846;28;20288;-74
2022/03/11 00:20:00;;;;;;;9.87;7.27;;;6.60;62.70;;;;;;10411773;28;20624;-74
2022/03/11 00:25:01;;;;;;;11.93;7.70;;;6.40;63.90;;;;;;10400317;28;20300;-73
2022/03/11 00:30:04;;;;;;;10.70;7.87;;;6.20;64.80;;;;;;10386107;28;20217;-73
2022/03/11 00:35:08;;;;;;;12.60;7.80;;;6.10;65.50;;;;;;10391056;28;20369;-75
2022/03/11 00:40:11;;;;;;;12.83;7.63;;;6.10;65.60;;;;;;10391132;28;20212;-73
2022/03/11 00:45:12;;;;;;;12.20;8.10;;;6.10;66.10;;;;;;10409769;28;20200;-73
2022/03/11 00:50:13;;;;;;;13.37;8.60;;;6.10;66.30;;;;;;10389719;28;20213;-74
2022/03/11 00:55:13;;;;;;;12.80;8.20;;;6.10;66.20;;;;;;10394575;28;20679;-73
2022/03/11 01:00:15;;;;;;;15.43;8.73;;;6.20;66.00;;;;;;10394219;28;20255;-74
2022/03/11 01:05:16;;;;;;;14.33;8.60;;;6.30;66.00;;;;;;10401496;28;20212;-75
2022/03/11 01:10:20;;;;;;;14.47;8.80;;;6.10;66.10;;;;;;10393999;28;20181;-73
2022/03/11 01:15:21;;;;;;;11.73;8.50;;;6.20;66.20;;;;;;10395031;28;20177;-74
2022/03/11 01:20:22;;;;;;;12.63;9.03;;;6.20;66.10;;;;;;10393702;28;20552;-73
2022/03/11 01:25:22;;;;;;;13.77;9.00;;;6.20;66.40;;;;;;10392752;28;20208;-73
2022/03/11 01:30:23;;;;;;;16.43;9.60;;;6.00;66.70;;;;;;10402170;28;20625;-73
2022/03/11 01:35:24;;;;;;;12.63;9.20;;;5.90;67.40;;;;;;10384011;28;20256;-73
2022/03/11 01:40:25;;;;;;;12.93;8.60;;;5.90;67.80;;;;;;10391673;28;20617;-74
2022/03/11 01:45:32;;;;;;;16.53;9.97;;;5.80;68.10;;;;;;10394246;28;20757;-74
2022/03/11 01:50:33;;;;;;;13.87;9.87;;;5.70;68.90;;;;;;10404933;28;20582;-74
2022/03/11 01:55:35;;;;;;;14.03;9.50;;;5.60;69.20;;;;;;10407903;28;20231;-73
2022/03/11 02:00:38;;;;;;;13.53;9.23;;;5.50;69.50;;;;;;10405961;28;20304;-74
2022/03/11 02:05:39;;;;;;;14.97;10.00;;;5.40;70.40;;;;;;10406166;28;20232;-74
2022/03/11 02:10:39;;;;;;;15.07;10.40;;;5.40;70.90;;;;;;10410730;28;20277;-73
2022/03/11 02:15:40;;;;;;;17.17;10.10;;;5.30;71.10;;;;;;10396085;28;20286;-74
2022/03/11 02:20:41;;;;;;;13.77;9.97;;;5.30;71.10;;;;;;10410691;28;20256;-74
2022/03/11 02:25:44;;;;;;;16.67;10.77;;;5.30;71.30;;;;;;10397694;28;20858;-74
2022/03/11 02:30:45;;;;;;;16.17;9.87;;;5.30;71.60;;;;;;10405813;28;20650;-73
2022/03/11 02:35:48;;;;;;;15.67;11.13;;;5.30;71.70;;;;;;10404045;28;20232;-73
2022/03/11 02:40:49;;;;;;;15.53;10.67;;;5.40;71.50;;;;;;10406316;28;20225;-73
2022/03/11 02:45:50;;;;;;;13.87;10.23;;;5.40;71.40;;;;;;10395615;28;20286;-74
2022/03/11 02:50:54;;;;;;;16.83;11.47;;;5.30;72.00;;;;;;10413531;28;20664;-74
2022/03/11 02:55:55;;;;;;;18.13;11.60;;;5.30;72.50;;;;;;10397092;28;20217;-74
2022/03/11 03:00:56;;;;;;;17.17;11.53;;;5.20;72.80;;;;;;10410672;28;20216;-73
2022/03/11 03:05:57;;;;;;;18.37;11.47;;;5.20;73.20;;;;;;10404936;28;20418;-74
2022/03/11 03:10:58;;;;;;;16.80;11.90;;;5.10;73.60;;;;;;10413277;28;20217;-75
2022/03/11 03:15:59;;;;;;;19.90;12.47;;;5.10;73.90;;;;;;10394978;28;20236;-73
2022/03/11 03:21:00;;;;;;;18.00;11.67;;;5.10;74.70;;;;;;10389085;28;20571;-73
2022/03/11 03:26:01;;;;;;;16.80;11.77;;;5.10;74.10;;;;;;10389712;28;20229;-77
2022/03/11 03:31:02;;;;;;;19.63;13.37;;;5.10;74.10;;;;;;10413209;28;20705;-74
2022/03/11 03:36:03;;;;;;;20.33;13.30;;;5.10;74.10;;;;;;10388065;28;20221;-75
2022/03/11 03:41:04;;;;;;;17.73;12.43;;;5.10;73.50;;;;;;10414271;28;20299;-74
2022/03/11 03:46:07;;;;;;;20.40;14.13;;;5.10;73.80;;;;;;10398807;28;20233;-74
2022/03/11 03:51:07;;;;;;;19.00;12.93;;;5.00;73.80;;;;;;10404625;28;20225;-73
2022/03/11 03:56:08;;;;;;;19.30;13.10;;;5.00;73.80;;;;;;10397896;28;20736;-73
2022/03/11 04:01:08;;;;;;;19.70;14.07;;;5.00;73.60;;;;;;10406119;28;20600;-72
2022/03/11 04:06:09;;;;;;;22.37;13.67;;;4.90;73.20;;;;;;10402033;28;20220;-73
2022/03/11 04:11:10;;;;;;;23.30;14.97;;;4.90;73.00;;;;;;10397798;28;20280;-73
2022/03/11 04:16:11;;;;;;;20.57;14.20;;;4.80;73.00;;;;;;10390744;28;20225;-75
2022/03/11 04:21:12;;;;;;;20.10;14.00;;;4.70;72.60;;;;;;10386629;28;20658;-73
2022/03/11 04:26:16;;;;;;;20.23;13.03;;;4.70;72.40;;;;;;10402224;28;20289;-75
2022/03/11 04:31:17;;;;;;;19.53;13.43;;;4.60;72.10;;;;;;10390580;28;20233;-74
2022/03/11 04:36:17;;;;;;;18.83;13.10;;;4.60;71.80;;;;;;10387883;28;20235;-73
2022/03/11 04:41:19;;;;;;;20.43;13.40;;;4.60;72.00;;;;;;10385937;28;20599;-73
2022/03/11 04:46:22;;;;;;;20.10;13.07;;;4.50;72.10;;;;;;10396760;28;20869;-73
2022/03/11 04:51:25;;;;;;;17.90;12.67;;;4.40;71.80;;;;;;10385431;28;20229;-73
2022/03/11 04:56:26;;;;;;;17.53;13.07;;;4.40;71.60;;;;;;10405298;28;20356;-73
2022/03/11 05:01:26;;;;;;;20.40;12.97;;;4.40;72.40;;;;;;10399247;28;20216;-74
2022/03/11 05:06:27;;;;;;;16.90;12.40;;;4.40;71.30;;;;;;10405593;28;20235;-72
2022/03/11 05:11:34;;;;;;;17.97;12.67;;;4.30;71.20;;;;;;10403332;28;20905;-73
2022/03/11 05:16:34;;;;;;;19.07;12.73;;;4.20;70.90;;;;;;10389682;28;20267;-73
2022/03/11 05:21:36;;;;;;;16.87;12.37;;;4.20;71.20;;;;;;10399190;28;20225;-73
2022/03/11 05:26:37;;;;;;;18.07;11.90;;;4.10;71.20;;;;;;10404148;28;20703;-75
2022/03/11 05:31:38;;;;;;;19.73;12.97;;;4.10;71.10;;;;;;10406326;28;20221;-72
2022/03/11 05:36:44;;;;;;;18.50;11.70;;;4.00;70.60;;;;;;10413173;28;20266;-75
2022/03/11 05:41:46;;;;;;;18.13;12.80;;;4.00;70.70;;;;;;10403579;28;20247;-74
2022/03/11 05:46:47;;;;;;;16.50;12.37;;;3.90;71.40;;;;;;10414292;28;20263;-74
2022/03/11 05:51:48;;;;;;;22.60;12.53;;;3.90;71.30;;;;;;10410478;28;20251;-74
2022/03/11 05:56:54;;;;;;;15.93;11.93;;;3.80;71.70;;;;;;10383122;28;20229;-71
2022/03/11 06:01:56;;;;;;;19.63;12.47;;;3.80;71.10;;;;;;10389649;28;20256;-72
2022/03/11 06:06:56;;;;;;;20.47;12.87;;;3.80;71.20;;;;;;10401560;28;20998;-71
2022/03/11 06:11:57;;;;;;;18.37;12.07;;;3.80;71.10;;;;;;10393870;28;20215;-71
2022/03/11 06:16:58;;;;;;;18.50;11.37;;;3.90;70.60;;;;;;10391109;28;20839;-72
2022/03/11 06:21:59;;;;;;;18.13;11.97;;;3.90;69.80;;;;;;10390885;28;20225;-72
2022/03/11 06:27:00;;;;;;;14.67;10.37;;;3.90;68.80;;;;;;10398246;28;20243;-74
2022/03/11 06:32:00;;;;;;;16.30;11.00;;;4.00;67.90;;;;;;10391739;28;20216;-73
2022/03/11 06:37:01;;;;;;;14.83;10.33;;;4.00;66.90;;;;;;10407340;28;20254;-74
2022/03/11 06:42:02;;;;;;;14.70;10.07;;;4.00;67.10;;;;;;10399976;28;20213;-73
2022/03/11 06:47:03;;;;;;;17.27;10.63;;;4.10;66.40;;;;;;10407105;28;20580;-74
2022/03/11 06:52:03;;;;;;;16.17;10.50;;;4.10;65.60;;;;;;10402141;28;20217;-74
2022/03/11 06:57:04;;;;;;;15.97;10.93;;;4.20;64.80;;;;;;10386221;28;20217;-76
2022/03/11 07:02:05;;;;;;;14.70;10.00;;;4.30;64.70;;;;;;10381407;28;20275;-74
2022/03/11 07:07:06;;;;;;;16.10;10.50;;;4.60;63.10;;;;;;10406359;28;20229;-73
2022/03/11 07:12:07;;;;;;;14.50;9.93;;;4.90;61.80;;;;;;10400888;28;20216;-74
2022/03/11 07:17:08;;;;;;;15.47;10.00;;;5.30;59.90;;;;;;10400123;28;20212;-72
2022/03/11 07:22:08;;;;;;;14.90;9.03;;;5.30;59.70;;;;;;10400362;28;20247;-71
2022/03/11 07:27:10;;;;;;;14.87;9.53;;;5.30;59.10;;;;;;10416871;28;20607;-75
2022/03/11 07:32:12;;;;;;;12.40;8.80;;;5.10;59.00;;;;;;10398944;28;20300;-74
2022/03/11 07:37:13;;;;;;;16.80;10.20;;;5.00;58.80;;;;;;10396928;28;20227;-74
2022/03/11 07:42:13;;;;;;;14.77;9.13;;;6.80;56.60;;;;;;10397051;28;20663;-73
2022/03/11 07:47:14;;;;;;;12.87;8.47;;;9.70;49.30;;;;;;10397353;28;20296;-72
2022/03/11 07:52:15;;;;;;;11.23;8.80;;;10.80;45.00;;;;;;10398677;28;20217;-75
2022/03/11 07:57:16;;;;;;;11.43;8.93;;;11.20;43.50;;;;;;10410081;28;20312;-74
2022/03/11 08:02:17;;;;;;;9.47;8.07;;;11.60;43.10;;;;;;10406602;28;20276;-73
2022/03/11 08:07:17;;;;;;;11.60;8.33;;;11.40;42.50;;;;;;10393937;28;20226;-75
2022/03/11 08:12:18;;;;;;;12.20;9.07;;;12.80;40.20;;;;;;10394681;28;20255;-73
2022/03/11 08:17:19;;;;;;;13.43;9.60;;;13.40;39.30;;;;;;10390730;28;20224;-74
2022/03/11 08:22:20;;;;;;;10.23;8.70;;;12.90;38.70;;;;;;10390033;28;20224;-73
2022/03/11 08:27:21;;;;;;;11.83;8.87;;;13.40;38.20;;;;;;10392871;28;20227;-75
2022/03/11 08:32:23;;;;;;;10.47;8.40;;;14.10;37.20;;;;;;10395397;28;20229;-70
2022/03/11 08:37:23;;;;;;;11.27;9.57;;;14.80;37.00;;;;;;10392623;28;20225;-71
2022/03/11 08:42:26;;;;;;;11.67;8.67;;;13.20;38.50;;;;;;10395034;28;21009;-69
2022/03/11 08:47:27;;;;;;;12.30;9.00;;;13.30;37.80;;;;;;10400097;28;20225;-70
2022/03/11 08:52:28;;;;;;;13.87;9.13;;;14.20;37.50;;;;;;10400395;28;20870;-70
2022/03/11 08:57:32;;;;;;;12.83;8.57;;;13.00;38.50;;;;;;10400973;28;20304;-70
2022/03/11 09:02:37;;;;;;;13.40;8.53;;;13.70;37.40;;;;;;10403295;28;20218;-70
2022/03/11 09:07:38;;;;;;;9.47;8.00;;;16.10;35.50;;;;;;10397847;28;20219;-69
2022/03/11 09:12:39;;;;;;;13.70;8.40;;;16.80;34.50;;;;;;10405726;28;20220;-70
2022/03/11 09:17:40;;;;;;;10.43;8.27;;;16.40;32.50;;;;;;10397391;28;20227;-76
2022/03/11 09:22:41;;;;;;;12.07;8.83;;;15.70;34.30;;;;;;10405321;28;20235;-74
2022/03/11 09:27:42;;;;;;;14.63;9.13;;;15.60;34.10;;;;;;10404982;28;20230;-73
2022/03/11 09:32:43;;;;;;;13.23;9.10;;;15.20;35.00;;;;;;10387818;28;20330;-74
2022/03/11 09:37:43;;;;;;;13.93;9.87;;;16.30;34.50;;;;;;10379878;28;20324;-74
2022/03/11 09:42:45;;;;;;;12.70;9.23;;;17.60;31.90;;;;;;10390934;28;20275;-72
2022/03/11 09:47:47;;;;;;;10.77;8.37;;;16.70;31.60;;;;;;10390963;28;20217;-72
2022/03/11 09:52:48;;;;;;;13.83;9.43;;;17.60;32.40;;;;;;10393502;28;20235;-74
2022/03/11 09:57:49;;;;;;;13.00;9.30;;;16.70;32.10;;;;;;10395737;28;20244;-73
2022/03/11 10:03:03;;;;;;;12.10;9.27;;;16.20;33.30;;;;;;10400251;28;20248;-73
2022/03/11 10:08:05;;;;;;;15.10;9.47;;;16.50;33.50;;;;;;10405474;28;20922;-73
2022/03/11 10:13:08;;;;;;;10.77;8.63;;;16.80;32.50;;;;;;10394275;28;20667;-74
2022/03/11 10:18:09;;;;;;;12.77;8.97;;;17.50;31.80;;;;;;10401241;28;20220;-73
2022/03/11 10:23:13;;;;;;;13.10;9.30;;;18.80;29.00;;;;;;10402138;28;20233;-73
2022/03/11 10:28:19;;;;;;;10.40;8.60;;;18.30;30.40;;;;;;10402186;28;20254;-74
2022/03/11 10:33:21;;;;;;;10.48;9.30;;;20.10;28.60;;;;;;10401128;28;20448;-74
2022/03/11 10:38:28;;;;;;;9.57;8.47;;;19.30;29.20;;;;;;10403756;28;20228;-74
2022/03/11 10:43:30;;;;;;;11.00;8.70;;;19.40;29.70;;;;;;10409519;28;20224;-73
2022/03/11 10:49:00;;;;;;;9.97;8.60;;;19.00;29.20;;;;;;10409410;28;20750;-74
2022/03/11 10:54:04;;;;;;;9.97;7.80;;;22.10;27.90;;;;;;10390125;28;20208;-74
2022/03/11 10:59:21;;;;;;;10.97;8.73;;;23.30;25.90;;;;;;10408349;28;20295;-74
2022/03/11 11:04:44;;;;;;;8.97;7.90;;;22.10;26.60;;;;;;10401191;28;20271;-72
2022/03/11 11:09:44;;;;;;;10.60;8.13;;;19.80;28.60;;;;;;10397337;28;20221;-72
2022/03/11 11:14:51;;;;;;;10.17;8.47;;;22.20;27.20;;;;;;10398301;28;20688;-74
2022/03/11 11:20:21;;;;;;;10.70;8.37;;;22.70;26.50;;;;;;10399801;28;20249;-74
2022/03/11 11:25:23;;;;;;;9.40;8.23;;;22.90;26.10;;;;;;10400516;28;20201;-75
2022/03/11 11:30:25;;;;;;;11.30;9.27;;;24.10;24.70;;;;;;10387120;28;20224;-73
2022/03/11 11:35:29;;;;;;;11.00;8.93;;;20.40;27.20;;;;;;10411915;28;20219;-75
2022/03/11 11:40:32;;;;;;;11.77;8.70;;;15.20;34.50;;;;;;10413415;28;20234;-75
2022/03/11 11:45:42;;;;;;;11.77;8.50;;;13.90;38.60;;;;;;10409516;28;20255;-75
2022/03/11 11:50:46;;;;;;;13.10;8.13;;;13.00;41.10;;;;;;10407997;28;20226;-76
2022/03/11 11:55:50;;;;;;;10.53;8.47;;;12.60;41.70;;;;;;10411853;28;20197;-76
2022/03/11 12:00:56;;;;;;;12.30;8.60;;;12.50;41.90;;;;;;10413594;28;20221;-74
2022/03/11 12:05:56;;;;;;;11.03;8.50;;;12.10;42.80;;;;;;10409495;28;20681;-76
2022/03/11 12:10:57;;;;;;;11.53;8.67;;;11.80;44.00;;;;;;10394758;28;20217;-73
2022/03/11 12:15:58;;;;;;;13.83;8.70;;;11.90;44.10;;;;;;10391665;28;20220;-74
2022/03/11 12:20:59;;;;;;;14.77;8.70;;;11.80;44.60;;;;;;10398389;28;20220;-74
2022/03/11 12:26:08;;;;;;;12.77;8.60;;;11.70;44.80;;;;;;10392010;28;20225;-72
2022/03/11 12:31:09;;;;;;;10.80;8.80;;;11.70;45.00;;;;;;10389024;28;20684;-72
2022/03/11 12:36:14;;;;;;;11.07;8.20;;;11.90;45.00;;;;;;10386594;28;20306;-74
2022/03/11 12:41:22;;;;;;;11.33;8.23;;;12.00;45.50;;;;;;10387387;28;20225;-72
2022/03/11 12:46:22;;;;;;;12.10;8.33;;;12.30;44.80;;;;;;10398520;28;20370;-74
2022/03/11 12:51:24;;;;;;;11.67;8.50;;;12.10;44.30;;;;;;10388109;28;20319;-73
2022/03/11 12:56:25;;;;;;;11.37;8.23;;;12.10;45.10;;;;;;10394248;28;20830;-73
2022/03/11 13:01:27;;;;;;;10.70;8.40;;;12.40;44.60;;;;;;10389430;28;20224;-74
2022/03/11 13:06:30;;;;;;;13.27;8.80;;;12.60;44.50;;;;;;10397418;28;20724;-72
2022/03/11 13:11:31;;;;;;;12.23;8.23;;;12.50;44.50;;;;;;10393087;28;20238;-72
2022/03/11 13:16:31;;;;;;;10.23;8.00;;;12.40;44.90;;;;;;10401198;28;20661;-74
2022/03/11 13:21:32;;;;;;;12.03;8.47;;;12.50;44.90;;;;;;10401167;28;20228;-73
2022/03/11 13:26:33;;;;;;;12.17;8.43;;;12.70;44.50;;;;;;10387501;28;20722;-73
2022/03/11 13:31:34;;;;;;;10.10;8.07;;;12.80;44.30;;;;;;10403594;28;20217;-73
2022/03/11 13:36:37;;;;;;;10.67;8.00;;;12.60;44.70;;;;;;10397515;28;20234;-75
2022/03/11 13:41:47;;;;;;;10.50;8.20;;;12.50;44.40;;;;;;10396331;28;20228;-73
2022/03/11 13:46:59;;;;;;;10.90;7.90;;;12.60;44.10;;;;;;10404265;28;20246;-73
2022/03/11 13:52:13;;;;;;;13.33;8.33;;;12.60;44.30;;;;;;10413458;28;20728;-75
2022/03/11 13:57:25;;;;;;;11.20;7.90;;;12.70;44.30;;;;;;10412427;28;20251;-75
2022/03/11 14:02:31;;;;;;;12.90;8.30;;;12.70;44.50;;;;;;10402732;28;20229;-74
2022/03/11 14:07:31;;;;;;;13.50;7.87;;;12.80;44.40;;;;;;10403168;28;20765;-75
2022/03/11 14:12:32;;;;;;;13.23;8.00;;;12.80;44.10;;;;;;10409728;28;20220;-74
2022/03/11 14:17:33;;;;;;;16.47;8.53;;;12.80;44.10;;;;;;10392846;28;20693;-73
2022/03/11 14:22:35;;;;;;;12.33;8.73;;;12.80;44.00;;;;;;10393063;28;20259;-74
2022/03/11 14:27:36;;;;;;;12.20;8.83;;;12.70;44.00;;;;;;10390756;28;20244;-73
2022/03/11 14:32:37;;;;;;;10.73;7.70;;;12.70;44.00;;;;;;10395139;28;20216;-74
2022/03/11 14:37:37;;;;;;;11.50;8.40;;;12.90;44.10;;;;;;10388396;28;20883;-73
2022/03/11 14:42:39;;;;;;;14.87;8.50;;;12.90;43.90;;;;;;10389461;28;20654;-74
2022/03/11 14:47:42;;;;;;;12.73;8.37;;;12.90;43.60;;;;;;10397747;28;20209;-74
2022/03/11 14:52:44;;;;;;;16.83;8.20;;;12.90;43.80;;;;;;10393353;28;20332;-73
2022/03/11 14:57:45;;;;;;;10.10;7.90;;;13.00;43.70;;;;;;10389005;28;20351;-73
2022/03/11 15:02:46;;;;;;;12.90;8.03;;;13.00;43.70;;;;;;10392956;28;20346;-74
2022/03/11 15:07:46;;;;;;;12.93;8.37;;;13.10;43.60;;;;;;10388069;28;20220;-74
2022/03/11 15:12:51;;;;;;;12.27;8.50;;;13.00;44.30;;;;;;10400079;28;20247;-73
2022/03/11 15:17:53;;;;;;;10.77;8.60;;;13.00;43.40;;;;;;10391139;28;20224;-73
2022/03/11 15:22:53;;;;;;;12.27;8.60;;;13.10;43.20;;;;;;10400548;28;20220;-73
2022/03/11 15:27:55;;;;;;;12.87;8.70;;;12.90;43.10;;;;;;10391401;28;20240;-73
2022/03/11 15:32:58;;;;;;;13.73;8.50;;;13.00;43.20;;;;;;10395913;28;20250;-74
2022/03/11 15:37:58;;;;;;;11.13;8.33;;;13.00;43.00;;;;;;10385716;28;20735;-73
2022/03/11 15:43:02;;;;;;;15.40;9.07;;;12.90;42.90;;;;;;10393946;28;20314;-73
2022/03/11 15:48:04;;;;;;;17.53;8.57;;;12.90;43.10;;;;;;10391948;28;20217;-74
2022/03/11 15:53:05;;;;;;;11.57;8.23;;;12.80;42.90;;;;;;10385143;28;20719;-73
2022/03/11 15:58:06;;;;;;;12.63;8.57;;;12.80;43.10;;;;;;10385058;28;20220;-73
2022/03/11 16:03:08;;;;;;;11.97;8.57;;;12.70;43.00;;;;;;10394926;28;20229;-74
2022/03/11 16:08:08;;;;;;;12.97;7.53;;;12.70;43.20;;;;;;10398281;28;20232;-73
2022/03/11 16:13:09;;;;;;;16.87;8.17;;;12.70;43.00;;;;;;10385622;28;20247;-73
2022/03/11 16:18:10;;;;;;;11.73;8.17;;;12.60;43.20;;;;;;10390615;28;20782;-73
2022/03/11 16:23:10;;;;;;;14.33;7.80;;;12.50;43.00;;;;;;10387497;28;20639;-73
2022/03/11 16:28:11;;;;;;;10.40;7.90;;;12.50;42.90;;;;;;10392303;28;20274;-73
2022/03/11 16:33:11;;;;;;;13.50;8.00;;;12.30;43.20;;;;;;10389037;28;20362;-74
2022/03/11 16:38:12;;;;;;;12.63;7.50;;;12.30;43.50;;;;;;10390000;28;20236;-73
2022/03/11 16:43:13;;;;;;;11.38;9.00;;;12.20;43.60;;;;;;10395532;28;20899;-74
2022/03/11 16:48:13;;;;;;;12.57;8.00;;;12.10;43.70;;;;;;10388379;28;20340;-73
2022/03/11 16:53:14;;;;;;;13.73;8.10;;;12.00;44.00;;;;;;10386808;28;20217;-73
2022/03/11 16:58:15;;;;;;;10.03;7.50;;;11.90;44.00;;;;;;10385983;28;20213;-73
2022/03/11 17:03:16;;;;;;;11.43;7.90;;;11.80;44.10;;;;;;10396815;28;20311;-73
2022/03/11 17:08:19;;;;;;;13.43;7.80;;;11.70;44.30;;;;;;10388864;28;20275;-73
2022/03/11 17:13:20;;;;;;;11.50;7.80;;;11.60;44.20;;;;;;10397542;28;20228;-74
2022/03/11 17:18:21;;;;;;;16.33;7.93;;;11.60;44.10;;;;;;10413055;28;20209;-73
2022/03/11 17:23:22;;;;;;;10.43;8.03;;;11.50;44.50;;;;;;10401714;28;20311;-74
2022/03/11 17:28:22;;;;;;;11.53;7.90;;;11.30;44.80;;;;;;10400752;28;20212;-73
2022/03/11 17:33:23;;;;;;;12.17;7.43;;;11.10;45.10;;;;;;10404004;28;20212;-74
2022/03/11 17:38:24;;;;;;;10.77;7.13;;;11.10;44.80;;;;;;10401746;28;20251;-75
2022/03/11 17:43:24;;;;;;;9.53;6.50;;;11.10;44.50;;;;;;10404474;28;20248;-73
2022/03/11 17:48:25;;;;;;;10.27;6.73;;;11.00;43.70;;;;;;10407514;28;20221;-73
2022/03/11 17:53:27;;;;;;;10.23;6.70;;;10.90;43.30;;;;;;10393256;28;20785;-73
2022/03/11 17:58:29;;;;;;;10.03;6.00;;;10.90;42.30;;;;;;10390337;28;20294;-73
2022/03/11 18:03:30;;;;;;;9.70;6.13;;;10.90;42.50;;;;;;10411581;28;20217;-73
2022/03/11 18:08:31;;;;;;;12.63;5.83;;;10.70;41.90;;;;;;10401075;28;20232;-73
2022/03/11 18:13:32;;;;;;;10.17;5.47;;;10.70;41.40;;;;;;10411174;28;20635;-74
2022/03/11 18:18:32;;;;;;;8.50;5.50;;;10.60;40.90;;;;;;10401703;28;20311;-73
2022/03/11 18:23:34;;;;;;;8.53;5.40;;;10.50;41.10;;;;;;10386444;28;20223;-74
2022/03/11 18:28:35;;;;;;;9.40;4.90;;;10.50;40.70;;;;;;10397783;28;20217;-74
2022/03/11 18:33:35;;;;;;;9.63;5.53;;;10.50;41.10;;;;;;10399730;28;20225;-74
2022/03/11 18:38:37;;;;;;;10.50;5.50;;;10.40;40.60;;;;;;10394179;28;20302;-74
2022/03/11 18:43:38;;;;;;;9.47;5.50;;;10.40;40.60;;;;;;10394149;28;20228;-73
2022/03/11 18:48:41;;;;;;;6.93;4.87;;;10.30;40.70;;;;;;10395980;28;20258;-75
2022/03/11 18:53:41;;;;;;;10.00;4.83;;;10.20;40.70;;;;;;10396615;28;20212;-74
2022/03/11 18:58:42;;;;;;;9.57;5.30;;;10.30;40.40;;;;;;10407100;28;20252;-74
2022/03/11 19:03:45;;;;;;;10.30;5.83;;;10.30;40.60;;;;;;10391207;28;20307;-74
2022/03/11 19:08:49;;;;;;;9.20;5.70;;;10.10;41.10;;;;;;10394518;28;20505;-73
2022/03/11 19:13:50;;;;;;;9.03;5.67;;;10.00;41.00;;;;;;10391217;28;20224;-74
2022/03/11 19:18:50;;;;;;;6.47;5.23;;;10.00;40.80;;;;;;10395641;28;20225;-74
2022/03/11 19:23:51;;;;;;;8.53;5.50;;;10.10;40.60;;;;;;10390905;28;20228;-74
2022/03/11 19:28:52;;;;;;;9.37;5.30;;;10.10;40.40;;;;;;10392361;28;20212;-74
2022/03/11 19:33:53;;;;;;;8.73;5.10;;;10.20;40.00;;;;;;10379368;28;20236;-75
2022/03/11 19:38:53;;;;;;;7.47;4.83;;;10.10;39.80;;;;;;10388387;28;20240;-74
2022/03/11 19:43:57;;;;;;;7.37;5.20;;;10.10;39.80;;;;;;10400750;28;21067;-74
2022/03/11 19:48:58;;;;;;;6.80;4.87;;;10.10;40.00;;;;;;10385828;28;20244;-73
2022/03/11 19:53:58;;;;;;;8.13;5.40;;;9.90;39.90;;;;;;10389682;28;20708;-74
2022/03/11 19:59:01;;;;;;;8.00;5.17;;;9.90;39.80;;;;;;10406608;28;20242;-74
2022/03/11 20:04:02;;;;;;;9.87;4.60;;;9.90;39.80;;;;;;10395451;28;20747;-73
2022/03/11 20:09:04;;;;;;;9.23;5.03;;;9.90;39.60;;;;;;10382978;28;20730;-74
2022/03/11 20:14:09;;;;;;;10.37;5.63;;;9.80;39.60;;;;;;10394131;28;20217;-73
2022/03/11 20:19:11;;;;;;;7.70;5.10;;;9.80;39.60;;;;;;10395475;28;20228;-75
2022/03/11 20:24:12;;;;;;;9.67;4.70;;;9.80;39.60;;;;;;10391005;28;20216;-74
2022/03/11 20:29:13;;;;;;;6.30;4.90;;;9.80;39.60;;;;;;10391093;28;20228;-73
2022/03/11 20:34:14;;;;;;;7.60;4.90;;;9.70;39.70;;;;;;10392855;28;20323;-74
2022/03/11 20:39:14;;;;;;;5.63;4.67;;;9.60;40.20;;;;;;10393366;28;20712;-74
2022/03/11 20:44:15;;;;;;;9.13;5.70;;;9.40;40.70;;;;;;10390607;28;20298;-73
2022/03/11 20:49:16;;;;;;;6.93;4.80;;;9.10;42.00;;;;;;10388629;28;20706;-74
2022/03/11 20:54:17;;;;;;;8.03;5.10;;;8.90;42.10;;;;;;10387675;28;20228;-74
2022/03/11 20:59:18;;;;;;;7.00;4.70;;;8.90;42.00;;;;;;10385109;28;20706;-73
2022/03/11 21:04:19;;;;;;;8.10;5.47;;;8.90;42.10;;;;;;10381184;28;20228;-73
2022/03/11 21:09:19;;;;;;;11.77;5.13;;;8.90;42.40;;;;;;10389646;28;20224;-74
2022/03/11 21:14:22;;;;;;;9.53;5.17;;;8.90;42.50;;;;;;10381606;28;20695;-74
2022/03/11 21:19:23;;;;;;;13.63;5.37;;;8.90;42.90;;;;;;10398354;28;20248;-74
2022/03/11 21:24:23;;;;;;;7.47;4.97;;;8.80;43.30;;;;;;10393783;28;20311;-74
2022/03/11 21:29:24;;;;;;;7.37;5.30;;;8.80;43.50;;;;;;10391883;28;20600;-73
2022/03/11 21:34:24;;;;;;;9.10;5.30;;;8.90;43.70;;;;;;10393051;28;20221;-73
2022/03/11 21:39:25;;;;;;;9.40;5.50;;;8.80;44.00;;;;;;10385347;28;20245;-73
2022/03/11 21:44:27;;;;;;;10.43;5.90;;;8.80;44.70;;;;;;10386693;28;20674;-73
2022/03/11 21:49:28;;;;;;;8.83;5.23;;;8.70;44.50;;;;;;10395119;28;20224;-74
2022/03/11 21:54:29;;;;;;;9.70;5.47;;;8.70;45.50;;;;;;10399669;28;20223;-73
2022/03/11 21:59:30;;;;;;;9.43;5.60;;;8.60;44.90;;;;;;10385917;28;20212;-73
2022/03/11 22:04:34;;;;;;;11.17;5.83;;;8.50;45.30;;;;;;10398630;28;20688;-73
2022/03/11 22:09:38;;;;;;;13.60;6.63;;;8.50;45.70;;;;;;10393356;28;20688;-74
2022/03/11 22:14:39;;;;;;;13.20;6.17;;;8.40;46.10;;;;;;10400335;28;20233;-73
2022/03/11 22:19:40;;;;;;;10.60;6.30;;;8.30;46.50;;;;;;10392872;28;20231;-73
2022/03/11 22:24:41;;;;;;;11.33;6.60;;;8.20;47.10;;;;;;10403040;28;20224;-74
2022/03/11 22:29:42;;;;;;;8.10;5.93;;;8.10;47.60;;;;;;10396016;28;20216;-72
2022/03/11 22:34:42;;;;;;;7.40;5.60;;;8.10;50.20;;;;;;10404074;28;20227;-72
2022/03/11 22:39:46;;;;;;;9.23;6.10;;;8.10;51.10;;;;;;10401916;28;20230;-73
2022/03/11 22:44:47;;;;;;;7.90;6.07;;;8.00;49.30;;;;;;10397651;28;20226;-72
2022/03/11 22:50:27;;;;;;;10.77;6.83;;;8.00;49.30;;;;;;10392058;28;20209;-72
2022/03/11 22:55:09;;;;;;;8.40;6.10;;;7.90;48.20;;;;;;10386817;28;20254;-73
2022/03/11 23:00:11;;;;;;;7.47;6.37;;;7.80;48.40;;;;;;10403977;28;20219;-73
2022/03/11 23:05:11;;;;;;;9.13;6.50;;;7.60;48.50;;;;;;10392955;28;20262;-72
2022/03/11 23:10:12;;;;;;;11.47;6.63;;;7.60;48.50;;;;;;10388640;28;20765;-72
2022/03/11 23:15:13;;;;;;;10.17;6.63;;;7.50;48.50;;;;;;10389314;28;20181;-73
2022/03/11 23:20:14;;;;;;;9.53;6.20;;;7.50;48.50;;;;;;10390882;28;20660;-73
2022/03/11 23:25:16;;;;;;;9.23;5.80;;;7.50;48.30;;;;;;10389421;28;20208;-73
2022/03/11 23:30:17;;;;;;;8.80;6.40;;;7.40;48.40;;;;;;10399386;28;20209;-73
2022/03/11 23:35:19;;;;;;;9.60;6.23;;;7.40;48.40;;;;;;10392565;28;20216;-72
2022/03/11 23:40:20;;;;;;;9.00;5.70;;;7.30;48.90;;;;;;10392779;28;20255;-72
2022/03/11 23:45:21;;;;;;;15.20;6.30;;;7.30;49.00;;;;;;10382980;28;20263;-72
2022/03/11 23:50:25;;;;;;;8.63;6.30;;;7.20;49.30;;;;;;10387601;28;20620;-72
2022/03/11 23:55:26;;;;;;;8.10;6.13;;;7.20;49.40;;;;;;10380103;28;20855;-72
